sensor_id;sensor_type;location;lat;lon;timestamp;pressure;altitude;pressure_sealevel;temperature
7389;BMP180;3735;50.136;11.062;2023-05-21T00:02:15;98055.00;;;15.90
7389;BMP180;3735;50.136;11.062;2023-05-21T00:04:43;98061.00;;;15.90
7389;BMP180;3735;50.136;11.062;2023-05-21T00:07:09;98043.00;;;15.90
7389;BMP180;3735;50.136;11.062;2023-05-21T00:09:36;98058.00;;;16.00
7389;BMP180;3735;50.136;11.062;2023-05-21T00:12:06;98053.00;;;16.00
7389;BMP180;3735;50.136;11.062;2023-05-21T00:14:33;98049.00;;;16.00
7389;BMP180;3735;50.136;11.062;2023-05-21T00:16:59;98039.00;;;16.00
7389;BMP180;3735;50.136;11.062;2023-05-21T00:19:25;98038.00;;;16.00
7389;BMP180;3735;50.136;11.062;2023-05-21T00:21:51;98038.00;;;16.00
7389;BMP180;3735;50.136;11.062;2023-05-21T00:24:18;98037.00;;;16.00
7389;BMP180;3735;50.136;11.062;2023-05-21T00:26:43;98038.00;;;16.10
7389;BMP180;3735;50.136;11.062;2023-05-21T00:29:09;98031.00;;;16.10
7389;BMP180;3735;50.136;11.062;2023-05-21T00:31:35;98035.00;;;16.00
7389;BMP180;3735;50.136;11.062;2023-05-21T00:34:01;98034.00;;;16.00
7389;BMP180;3735;50.136;11.062;2023-05-21T00:36:27;98031.00;;;15.90
7389;BMP180;3735;50.136;11.062;2023-05-21T00:38:52;98033.00;;;16.00
7389;BMP180;3735;50.136;11.062;2023-05-21T00:41:18;98023.00;;;16.00
7389;BMP180;3735;50.136;11.062;2023-05-21T00:43:44;98023.00;;;16.00
7389;BMP180;3735;50.136;11.062;2023-05-21T00:46:14;98014.00;;;16.00
7389;BMP180;3735;50.136;11.062;2023-05-21T00:48:46;98023.00;;;16.00
7389;BMP180;3735;50.136;11.062;2023-05-21T00:51:16;98013.00;;;16.00
7389;BMP180;3735;50.136;11.062;2023-05-21T00:53:44;98021.00;;;16.00
7389;BMP180;3735;50.136;11.062;2023-05-21T00:56:10;98018.00;;;16.00
7389;BMP180;3735;50.136;11.062;2023-05-21T00:58:39;98012.00;;;15.90
7389;BMP180;3735;50.136;11.062;2023-05-21T01:01:05;98015.00;;;16.00
7389;BMP180;3735;50.136;11.062;2023-05-21T01:03:33;98014.00;;;16.00
7389;BMP180;3735;50.136;11.062;2023-05-21T01:06:04;98014.00;;;15.90
7389;BMP180;3735;50.136;11.062;2023-05-21T01:08:31;98007.00;;;15.90
7389;BMP180;3735;50.136;11.062;2023-05-21T01:11:00;98004.00;;;15.90
7389;BMP180;3735;50.136;11.062;2023-05-21T01:13:27;98003.00;;;15.90
7389;BMP180;3735;50.136;11.062;2023-05-21T01:15:53;98000.00;;;15.80
7389;BMP180;3735;50.136;11.062;2023-05-21T01:18:20;97999.00;;;15.90
7389;BMP180;3735;50.136;11.062;2023-05-21T01:20:46;98003.00;;;15.80
7389;BMP180;3735;50.136;11.062;2023-05-21T01:23:19;98004.00;;;15.70
7389;BMP180;3735;50.136;11.062;2023-05-21T01:25:46;97996.00;;;15.70
7389;BMP180;3735;50.136;11.062;2023-05-21T01:28:12;97996.00;;;15.70
7389;BMP180;3735;50.136;11.062;2023-05-21T01:30:40;98004.00;;;15.70
7389;BMP180;3735;50.136;11.062;2023-05-21T01:33:19;97995.00;;;15.70
7389;BMP180;3735;50.136;11.062;2023-05-21T01:36:01;98006.00;;;15.70
7389;BMP180;3735;50.136;11.062;2023-05-21T01:38:42;98009.00;;;15.70
7389;BMP180;3735;50.136;11.062;2023-05-21T01:41:13;97998.00;;;15.70
7389;BMP180;3735;50.136;11.062;2023-05-21T01:43:43;97998.00;;;15.70
7389;BMP180;3735;50.136;11.062;2023-05-21T01:46:14;97995.00;;;15.70
7389;BMP180;3735;50.136;11.062;2023-05-21T01:48:43;97995.00;;;15.80
7389;BMP180;3735;50.136;11.062;2023-05-21T01:51:09;97992.00;;;15.80
7389;BMP180;3735;50.136;11.062;2023-05-21T01:53:35;98002.00;;;15.80
7389;BMP180;3735;50.136;11.062;2023-05-21T01:56:04;97991.00;;;15.80
7389;BMP180;3735;50.136;11.062;2023-05-21T01:58:30;97991.00;;;15.80
7389;BMP180;3735;50.136;11.062;2023-05-21T02:00:55;97991.00;;;15.80
7389;BMP180;3735;50.136;11.062;2023-05-21T02:03:24;97991.00;;;15.80
7389;BMP180;3735;50.136;11.062;2023-05-21T02:05:51;97991.00;;;15.80
7389;BMP180;3735;50.136;11.062;2023-05-21T02:08:17;97981.00;;;15.80
7389;BMP180;3735;50.136;11.062;2023-05-21T02:10:44;97988.00;;;15.80
7389;BMP180;3735;50.136;11.062;2023-05-21T02:13:10;97986.00;;;15.80
7389;BMP180;3735;50.136;11.062;2023-05-21T02:15:36;97989.00;;;15.80
7389;BMP180;3735;50.136;11.062;2023-05-21T02:18:03;97985.00;;;15.90
7389;BMP180;3735;50.136;11.062;2023-05-21T02:20:29;97986.00;;;15.80
7389;BMP180;3735;50.136;11.062;2023-05-21T02:22:55;97985.00;;;15.80
7389;BMP180;3735;50.136;11.062;2023-05-21T02:25:22;97980.00;;;15.80
7389;BMP180;3735;50.136;11.062;2023-05-21T02:27:47;97986.00;;;15.80
7389;BMP180;3735;50.136;11.062;2023-05-21T02:30:17;97987.00;;;15.80
7389;BMP180;3735;50.136;11.062;2023-05-21T02:32:43;97986.00;;;15.80
7389;BMP180;3735;50.136;11.062;2023-05-21T02:35:11;97983.00;;;15.80
7389;BMP180;3735;50.136;11.062;2023-05-21T02:37:38;97981.00;;;15.80
7389;BMP180;3735;50.136;11.062;2023-05-21T02:40:09;97979.00;;;15.70
7389;BMP180;3735;50.136;11.062;2023-05-21T02:42:37;97979.00;;;15.60
7389;BMP180;3735;50.136;11.062;2023-05-21T02:45:09;97979.00;;;15.60
7389;BMP180;3735;50.136;11.062;2023-05-21T02:47:35;97972.00;;;15.60
7389;BMP180;3735;50.136;11.062;2023-05-21T02:50:01;97980.00;;;15.60
7389;BMP180;3735;50.136;11.062;2023-05-21T02:52:27;97973.00;;;15.60
7389;BMP180;3735;50.136;11.062;2023-05-21T02:54:53;97980.00;;;15.60
7389;BMP180;3735;50.136;11.062;2023-05-21T02:57:18;97973.00;;;15.60
7389;BMP180;3735;50.136;11.062;2023-05-21T02:59:45;97971.00;;;15.60
7389;BMP180;3735;50.136;11.062;2023-05-21T03:02:11;97974.00;;;15.70
7389;BMP180;3735;50.136;11.062;2023-05-21T03:04:36;97971.00;;;15.60
7389;BMP180;3735;50.136;11.062;2023-05-21T03:07:14;97970.00;;;15.50
7389;BMP180;3735;50.136;11.062;2023-05-21T03:09:40;97946.00;;;15.60
7389;BMP180;3735;50.136;11.062;2023-05-21T03:12:07;97960.00;;;15.60
7389;BMP180;3735;50.136;11.062;2023-05-21T03:14:33;97964.00;;;15.60
7389;BMP180;3735;50.136;11.062;2023-05-21T03:17:00;97965.00;;;15.60
7389;BMP180;3735;50.136;11.062;2023-05-21T03:19:31;97970.00;;;15.50
7389;BMP180;3735;50.136;11.062;2023-05-21T03:22:00;97968.00;;;15.60
7389;BMP180;3735;50.136;11.062;2023-05-21T03:24:27;97963.00;;;15.60
7389;BMP180;3735;50.136;11.062;2023-05-21T03:26:55;97964.00;;;15.50
7389;BMP180;3735;50.136;11.062;2023-05-21T03:29:21;97961.00;;;15.50
7389;BMP180;3735;50.136;11.062;2023-05-21T03:31:47;97966.00;;;15.60
7389;BMP180;3735;50.136;11.062;2023-05-21T03:34:13;97951.00;;;15.60
7389;BMP180;3735;50.136;11.062;2023-05-21T03:36:39;97977.00;;;15.60
7389;BMP180;3735;50.136;11.062;2023-05-21T03:39:05;97979.00;;;15.50
7389;BMP180;3735;50.136;11.062;2023-05-21T03:41:31;97973.00;;;15.60
7389;BMP180;3735;50.136;11.062;2023-05-21T03:43:57;97975.00;;;15.60
7389;BMP180;3735;50.136;11.062;2023-05-21T03:46:23;97970.00;;;15.50
7389;BMP180;3735;50.136;11.062;2023-05-21T03:48:48;97982.00;;;15.60
7389;BMP180;3735;50.136;11.062;2023-05-21T03:51:14;97970.00;;;15.60
7389;BMP180;3735;50.136;11.062;2023-05-21T03:53:40;97983.00;;;15.60
7389;BMP180;3735;50.136;11.062;2023-05-21T03:56:06;97947.00;;;15.70
7389;BMP180;3735;50.136;11.062;2023-05-21T03:58:32;97982.00;;;15.70
7389;BMP180;3735;50.136;11.062;2023-05-21T04:00:58;97983.00;;;15.70
7389;BMP180;3735;50.136;11.062;2023-05-21T04:03:26;97979.00;;;15.80
7389;BMP180;3735;50.136;11.062;2023-05-21T04:05:51;97978.00;;;15.90
7389;BMP180;3735;50.136;11.062;2023-05-21T04:08:17;97985.00;;;15.90
7389;BMP180;3735;50.136;11.062;2023-05-21T04:10:43;97987.00;;;15.90
7389;BMP180;3735;50.136;11.062;2023-05-21T04:13:09;97986.00;;;16.00
7389;BMP180;3735;50.136;11.062;2023-05-21T04:15:35;97985.00;;;16.10
7389;BMP180;3735;50.136;11.062;2023-05-21T04:18:03;97982.00;;;16.10
7389;BMP180;3735;50.136;11.062;2023-05-21T04:20:29;97991.00;;;16.30
7389;BMP180;3735;50.136;11.062;2023-05-21T04:22:55;97994.00;;;16.40
7389;BMP180;3735;50.136;11.062;2023-05-21T04:25:21;97987.00;;;16.60
7389;BMP180;3735;50.136;11.062;2023-05-21T04:27:47;97977.00;;;16.80
7389;BMP180;3735;50.136;11.062;2023-05-21T04:30:14;97988.00;;;17.00
7389;BMP180;3735;50.136;11.062;2023-05-21T04:32:40;97990.00;;;17.10
7389;BMP180;3735;50.136;11.062;2023-05-21T04:35:10;97988.00;;;17.20
7389;BMP180;3735;50.136;11.062;2023-05-21T04:37:37;97983.00;;;17.30
7389;BMP180;3735;50.136;11.062;2023-05-21T04:40:10;97986.00;;;17.70
7389;BMP180;3735;50.136;11.062;2023-05-21T04:42:36;97988.00;;;18.10
7389;BMP180;3735;50.136;11.062;2023-05-21T04:45:03;97981.00;;;18.40
7389;BMP180;3735;50.136;11.062;2023-05-21T04:47:29;97980.00;;;18.50
7389;BMP180;3735;50.136;11.062;2023-05-21T04:50:01;97988.00;;;18.60
7389;BMP180;3735;50.136;11.062;2023-05-21T04:52:26;97990.00;;;18.80
7389;BMP180;3735;50.136;11.062;2023-05-21T04:54:52;97998.00;;;19.10
7389;BMP180;3735;50.136;11.062;2023-05-21T04:57:18;97991.00;;;19.30
7389;BMP180;3735;50.136;11.062;2023-05-21T04:59:44;97984.00;;;19.50
7389;BMP180;3735;50.136;11.062;2023-05-21T05:02:11;97990.00;;;19.20
7389;BMP180;3735;50.136;11.062;2023-05-21T05:04:37;97979.00;;;19.30
7389;BMP180;3735;50.136;11.062;2023-05-21T05:07:03;97987.00;;;19.40
7389;BMP180;3735;50.136;11.062;2023-05-21T05:09:29;97983.00;;;19.60
7389;BMP180;3735;50.136;11.062;2023-05-21T05:11:56;97982.00;;;19.80
7389;BMP180;3735;50.136;11.062;2023-05-21T05:14:21;97986.00;;;20.00
7389;BMP180;3735;50.136;11.062;2023-05-21T05:16:47;97985.00;;;20.10
7389;BMP180;3735;50.136;11.062;2023-05-21T05:19:13;97984.00;;;20.10
7389;BMP180;3735;50.136;11.062;2023-05-21T05:21:39;97966.00;;;20.10
7389;BMP180;3735;50.136;11.062;2023-05-21T05:24:05;97970.00;;;20.10
7389;BMP180;3735;50.136;11.062;2023-05-21T05:26:31;97980.00;;;20.10
7389;BMP180;3735;50.136;11.062;2023-05-21T05:28:56;97984.00;;;20.10
7389;BMP180;3735;50.136;11.062;2023-05-21T05:31:22;97979.00;;;20.10
7389;BMP180;3735;50.136;11.062;2023-05-21T05:33:48;97971.00;;;20.10
7389;BMP180;3735;50.136;11.062;2023-05-21T05:36:14;97984.00;;;20.10
7389;BMP180;3735;50.136;11.062;2023-05-21T05:38:40;97987.00;;;20.10
7389;BMP180;3735;50.136;11.062;2023-05-21T05:41:05;97982.00;;;20.50
7389;BMP180;3735;50.136;11.062;2023-05-21T05:43:31;97986.00;;;20.60
7389;BMP180;3735;50.136;11.062;2023-05-21T05:45:57;97979.00;;;20.80
7389;BMP180;3735;50.136;11.062;2023-05-21T05:48:23;97984.00;;;21.30
7389;BMP180;3735;50.136;11.062;2023-05-21T05:50:48;97978.00;;;21.80
7389;BMP180;3735;50.136;11.062;2023-05-21T05:53:14;97975.00;;;22.40
7389;BMP180;3735;50.136;11.062;2023-05-21T05:55:40;97974.00;;;23.00
7389;BMP180;3735;50.136;11.062;2023-05-21T05:58:06;97979.00;;;23.20
7389;BMP180;3735;50.136;11.062;2023-05-21T06:00:32;97976.00;;;23.50
7389;BMP180;3735;50.136;11.062;2023-05-21T06:02:58;97969.00;;;23.50
7389;BMP180;3735;50.136;11.062;2023-05-21T06:05:23;97980.00;;;23.50
7389;BMP180;3735;50.136;11.062;2023-05-21T06:07:49;97974.00;;;23.80
7389;BMP180;3735;50.136;11.062;2023-05-21T06:10:15;97974.00;;;24.20
7389;BMP180;3735;50.136;11.062;2023-05-21T06:12:40;97963.00;;;24.60
7389;BMP180;3735;50.136;11.062;2023-05-21T06:15:07;97974.00;;;24.30
7389;BMP180;3735;50.136;11.062;2023-05-21T06:17:33;97978.00;;;24.60
7389;BMP180;3735;50.136;11.062;2023-05-21T06:19:59;97975.00;;;24.30
7389;BMP180;3735;50.136;11.062;2023-05-21T06:22:25;97982.00;;;24.40
7389;BMP180;3735;50.136;11.062;2023-05-21T06:24:50;97974.00;;;24.90
7389;BMP180;3735;50.136;11.062;2023-05-21T06:27:16;97981.00;;;25.80
7389;BMP180;3735;50.136;11.062;2023-05-21T06:29:42;97956.00;;;26.00
7389;BMP180;3735;50.136;11.062;2023-05-21T06:32:08;97969.00;;;26.00
7389;BMP180;3735;50.136;11.062;2023-05-21T06:34:33;97974.00;;;25.70
7389;BMP180;3735;50.136;11.062;2023-05-21T06:36:59;97982.00;;;25.50
7389;BMP180;3735;50.136;11.062;2023-05-21T06:39:25;97982.00;;;25.30
7389;BMP180;3735;50.136;11.062;2023-05-21T06:41:52;97973.00;;;25.70
7389;BMP180;3735;50.136;11.062;2023-05-21T06:44:18;97976.00;;;26.30
7389;BMP180;3735;50.136;11.062;2023-05-21T06:46:43;97986.00;;;26.90
7389;BMP180;3735;50.136;11.062;2023-05-21T06:49:11;97974.00;;;26.40
7389;BMP180;3735;50.136;11.062;2023-05-21T06:51:38;97979.00;;;26.20
7389;BMP180;3735;50.136;11.062;2023-05-21T06:54:04;97981.00;;;26.10
7389;BMP180;3735;50.136;11.062;2023-05-21T06:56:29;97991.00;;;25.70
7389;BMP180;3735;50.136;11.062;2023-05-21T06:58:55;97985.00;;;25.60
7389;BMP180;3735;50.136;11.062;2023-05-21T07:01:22;97989.00;;;25.30
7389;BMP180;3735;50.136;11.062;2023-05-21T07:03:48;97984.00;;;25.60
7389;BMP180;3735;50.136;11.062;2023-05-21T07:06:14;97985.00;;;26.00
7389;BMP180;3735;50.136;11.062;2023-05-21T07:08:41;97988.00;;;26.70
7389;BMP180;3735;50.136;11.062;2023-05-21T07:11:07;97989.00;;;27.20
7389;BMP180;3735;50.136;11.062;2023-05-21T07:13:35;97987.00;;;27.50
7389;BMP180;3735;50.136;11.062;2023-05-21T07:16:01;97980.00;;;27.60
7389;BMP180;3735;50.136;11.062;2023-05-21T07:18:26;97982.00;;;27.90
7389;BMP180;3735;50.136;11.062;2023-05-21T07:20:52;97975.00;;;28.00
7389;BMP180;3735;50.136;11.062;2023-05-21T07:23:18;97983.00;;;28.50
7389;BMP180;3735;50.136;11.062;2023-05-21T07:25:45;97986.00;;;29.20
7389;BMP180;3735;50.136;11.062;2023-05-21T07:28:11;97976.00;;;29.80
7389;BMP180;3735;50.136;11.062;2023-05-21T07:30:37;97979.00;;;29.50
7389;BMP180;3735;50.136;11.062;2023-05-21T07:33:03;97981.00;;;29.50
7389;BMP180;3735;50.136;11.062;2023-05-21T07:35:28;97985.00;;;29.30
7389;BMP180;3735;50.136;11.062;2023-05-21T07:37:54;97977.00;;;29.20
7389;BMP180;3735;50.136;11.062;2023-05-21T07:40:20;97985.00;;;29.00
7389;BMP180;3735;50.136;11.062;2023-05-21T07:42:46;97983.00;;;29.00
7389;BMP180;3735;50.136;11.062;2023-05-21T07:45:11;97974.00;;;29.00
7389;BMP180;3735;50.136;11.062;2023-05-21T07:47:37;97982.00;;;28.70
7389;BMP180;3735;50.136;11.062;2023-05-21T07:50:04;97981.00;;;29.30
7389;BMP180;3735;50.136;11.062;2023-05-21T07:52:30;97983.00;;;29.50
7389;BMP180;3735;50.136;11.062;2023-05-21T07:54:56;97982.00;;;29.30
7389;BMP180;3735;50.136;11.062;2023-05-21T07:57:21;97986.00;;;29.10
7389;BMP180;3735;50.136;11.062;2023-05-21T07:59:47;97984.00;;;29.00
7389;BMP180;3735;50.136;11.062;2023-05-21T08:02:13;97986.00;;;28.90
7389;BMP180;3735;50.136;11.062;2023-05-21T08:04:39;97991.00;;;28.70
7389;BMP180;3735;50.136;11.062;2023-05-21T08:07:05;97980.00;;;28.60
7389;BMP180;3735;50.136;11.062;2023-05-21T08:09:30;97985.00;;;28.40
7389;BMP180;3735;50.136;11.062;2023-05-21T08:11:57;97991.00;;;28.40
7389;BMP180;3735;50.136;11.062;2023-05-21T08:14:22;97992.00;;;28.50
7389;BMP180;3735;50.136;11.062;2023-05-21T08:16:48;97987.00;;;28.80
7389;BMP180;3735;50.136;11.062;2023-05-21T08:19:14;97989.00;;;28.60
7389;BMP180;3735;50.136;11.062;2023-05-21T08:21:40;98001.00;;;28.40
7389;BMP180;3735;50.136;11.062;2023-05-21T08:24:06;98003.00;;;28.60
7389;BMP180;3735;50.136;11.062;2023-05-21T08:26:32;97994.00;;;28.90
7389;BMP180;3735;50.136;11.062;2023-05-21T08:28:57;98006.00;;;29.00
7389;BMP180;3735;50.136;11.062;2023-05-21T08:31:23;98004.00;;;28.80
7389;BMP180;3735;50.136;11.062;2023-05-21T08:33:53;97999.00;;;29.50
7389;BMP180;3735;50.136;11.062;2023-05-21T08:36:20;97993.00;;;29.70
7389;BMP180;3735;50.136;11.062;2023-05-21T08:38:47;98003.00;;;30.30
7389;BMP180;3735;50.136;11.062;2023-05-21T08:41:15;97987.00;;;30.20
7389;BMP180;3735;50.136;11.062;2023-05-21T08:43:42;97983.00;;;30.50
7389;BMP180;3735;50.136;11.062;2023-05-21T08:46:10;97998.00;;;30.20
7389;BMP180;3735;50.136;11.062;2023-05-21T08:48:36;97997.00;;;30.00
7389;BMP180;3735;50.136;11.062;2023-05-21T08:51:03;97995.00;;;29.70
7389;BMP180;3735;50.136;11.062;2023-05-21T08:53:32;97999.00;;;29.50
7389;BMP180;3735;50.136;11.062;2023-05-21T08:56:00;97994.00;;;29.60
7389;BMP180;3735;50.136;11.062;2023-05-21T08:58:26;97997.00;;;29.70
7389;BMP180;3735;50.136;11.062;2023-05-21T09:00:53;97989.00;;;29.80
7389;BMP180;3735;50.136;11.062;2023-05-21T09:03:20;97986.00;;;30.00
7389;BMP180;3735;50.136;11.062;2023-05-21T09:05:47;97994.00;;;30.40
7389;BMP180;3735;50.136;11.062;2023-05-21T09:08:21;97991.00;;;30.90
7389;BMP180;3735;50.136;11.062;2023-05-21T09:10:50;97982.00;;;30.60
7389;BMP180;3735;50.136;11.062;2023-05-21T09:13:18;97986.00;;;31.20
7389;BMP180;3735;50.136;11.062;2023-05-21T09:15:45;97984.00;;;31.30
7389;BMP180;3735;50.136;11.062;2023-05-21T09:18:14;97986.00;;;31.60
7389;BMP180;3735;50.136;11.062;2023-05-21T09:20:41;97987.00;;;31.60
7389;BMP180;3735;50.136;11.062;2023-05-21T09:23:07;97985.00;;;31.90
7389;BMP180;3735;50.136;11.062;2023-05-21T09:25:44;97980.00;;;31.80
7389;BMP180;3735;50.136;11.062;2023-05-21T09:28:15;97984.00;;;32.20
7389;BMP180;3735;50.136;11.062;2023-05-21T09:30:46;97979.00;;;33.00
7389;BMP180;3735;50.136;11.062;2023-05-21T09:33:27;97985.00;;;34.10
7389;BMP180;3735;50.136;11.062;2023-05-21T09:35:56;97972.00;;;34.60
7389;BMP180;3735;50.136;11.062;2023-05-21T09:38:22;97985.00;;;34.70
7389;BMP180;3735;50.136;11.062;2023-05-21T09:40:48;97979.00;;;34.60
7389;BMP180;3735;50.136;11.062;2023-05-21T09:43:14;97974.00;;;35.30
7389;BMP180;3735;50.136;11.062;2023-05-21T09:45:54;97980.00;;;34.70
7389;BMP180;3735;50.136;11.062;2023-05-21T09:48:39;97971.00;;;35.00
7389;BMP180;3735;50.136;11.062;2023-05-21T09:51:15;97967.00;;;35.30
7389;BMP180;3735;50.136;11.062;2023-05-21T09:53:53;97974.00;;;34.90
7389;BMP180;3735;50.136;11.062;2023-05-21T09:56:24;97983.00;;;35.20
7389;BMP180;3735;50.136;11.062;2023-05-21T09:58:53;97986.00;;;34.50
7389;BMP180;3735;50.136;11.062;2023-05-21T10:01:20;97980.00;;;34.40
7389;BMP180;3735;50.136;11.062;2023-05-21T10:03:56;97981.00;;;33.80
7389;BMP180;3735;50.136;11.062;2023-05-21T10:06:31;97981.00;;;33.40
7389;BMP180;3735;50.136;11.062;2023-05-21T10:09:02;97967.00;;;33.00
7389;BMP180;3735;50.136;11.062;2023-05-21T10:11:31;97977.00;;;33.30
7389;BMP180;3735;50.136;11.062;2023-05-21T10:16:31;97980.00;;;32.80
7389;BMP180;3735;50.136;11.062;2023-05-21T10:18:58;97980.00;;;32.30
7389;BMP180;3735;50.136;11.062;2023-05-21T10:21:25;97978.00;;;32.50
7389;BMP180;3735;50.136;11.062;2023-05-21T10:23:54;97968.00;;;32.80
7389;BMP180;3735;50.136;11.062;2023-05-21T10:26:22;97974.00;;;33.10
7389;BMP180;3735;50.136;11.062;2023-05-21T10:28:50;97967.00;;;33.50
7389;BMP180;3735;50.136;11.062;2023-05-21T10:31:17;97974.00;;;34.80
7389;BMP180;3735;50.136;11.062;2023-05-21T10:33:43;97967.00;;;35.00
7389;BMP180;3735;50.136;11.062;2023-05-21T10:36:10;97961.00;;;34.40
7389;BMP180;3735;50.136;11.062;2023-05-21T10:38:38;97962.00;;;34.80
7389;BMP180;3735;50.136;11.062;2023-05-21T10:41:05;97966.00;;;35.10
7389;BMP180;3735;50.136;11.062;2023-05-21T10:44:10;97967.00;;;34.50
7389;BMP180;3735;50.136;11.062;2023-05-21T11:00:19;97959.00;;;34.30
7389;BMP180;3735;50.136;11.062;2023-05-21T11:02:47;97959.00;;;34.70
7389;BMP180;3735;50.136;11.062;2023-05-21T11:05:13;97950.00;;;35.20
7389;BMP180;3735;50.136;11.062;2023-05-21T11:07:53;97961.00;;;35.90
7389;BMP180;3735;50.136;11.062;2023-05-21T11:10:37;97947.00;;;35.60
7389;BMP180;3735;50.136;11.062;2023-05-21T11:13:15;97957.00;;;35.50
7389;BMP180;3735;50.136;11.062;2023-05-21T11:21:16;97961.00;;;35.70
7389;BMP180;3735;50.136;11.062;2023-05-21T11:23:53;97968.00;;;35.10
7389;BMP180;3735;50.136;11.062;2023-05-21T11:26:24;97948.00;;;34.80
7389;BMP180;3735;50.136;11.062;2023-05-21T11:29:09;97956.00;;;34.40
7389;BMP180;3735;50.136;11.062;2023-05-21T11:31:36;97961.00;;;33.90
7389;BMP180;3735;50.136;11.062;2023-05-21T11:34:19;97956.00;;;34.20
7389;BMP180;3735;50.136;11.062;2023-05-21T11:39:50;97937.00;;;33.60
7389;BMP180;3735;50.136;11.062;2023-05-21T11:42:27;97946.00;;;33.60
7389;BMP180;3735;50.136;11.062;2023-05-21T11:44:56;97947.00;;;33.30
7389;BMP180;3735;50.136;11.062;2023-05-21T11:47:26;97947.00;;;33.30
7389;BMP180;3735;50.136;11.062;2023-05-21T11:49:53;97940.00;;;33.10
7389;BMP180;3735;50.136;11.062;2023-05-21T11:52:20;97938.00;;;32.80
7389;BMP180;3735;50.136;11.062;2023-05-21T11:54:49;97942.00;;;32.40
7389;BMP180;3735;50.136;11.062;2023-05-21T11:57:17;97954.00;;;32.20
7389;BMP180;3735;50.136;11.062;2023-05-21T11:59:49;97946.00;;;31.80
7389;BMP180;3735;50.136;11.062;2023-05-21T12:02:21;97947.00;;;31.20
7389;BMP180;3735;50.136;11.062;2023-05-21T12:04:49;97934.00;;;30.80
7389;BMP180;3735;50.136;11.062;2023-05-21T12:07:18;97944.00;;;31.30
7389;BMP180;3735;50.136;11.062;2023-05-21T12:09:49;97935.00;;;31.30
7389;BMP180;3735;50.136;11.062;2023-05-21T12:12:18;97945.00;;;30.90
7389;BMP180;3735;50.136;11.062;2023-05-21T12:14:48;97939.00;;;30.70
7389;BMP180;3735;50.136;11.062;2023-05-21T12:17:20;97944.00;;;31.40
7389;BMP180;3735;50.136;11.062;2023-05-21T12:19:51;97944.00;;;32.10
7389;BMP180;3735;50.136;11.062;2023-05-21T12:22:17;97943.00;;;31.90
7389;BMP180;3735;50.136;11.062;2023-05-21T12:24:45;97942.00;;;31.30
7389;BMP180;3735;50.136;11.062;2023-05-21T12:27:14;97939.00;;;31.60
7389;BMP180;3735;50.136;11.062;2023-05-21T12:29:47;97939.00;;;31.30
7389;BMP180;3735;50.136;11.062;2023-05-21T12:32:14;97937.00;;;30.90
7389;BMP180;3735;50.136;11.062;2023-05-21T12:34:46;97932.00;;;31.40
7389;BMP180;3735;50.136;11.062;2023-05-21T12:37:17;97935.00;;;31.20
7389;BMP180;3735;50.136;11.062;2023-05-21T12:39:45;97929.00;;;31.40
7389;BMP180;3735;50.136;11.062;2023-05-21T12:42:13;97936.00;;;31.50
7389;BMP180;3735;50.136;11.062;2023-05-21T12:44:48;97939.00;;;31.60
7389;BMP180;3735;50.136;11.062;2023-05-21T12:47:14;97928.00;;;31.70
7389;BMP180;3735;50.136;11.062;2023-05-21T12:49:42;97925.00;;;31.90
7389;BMP180;3735;50.136;11.062;2023-05-21T12:52:17;97933.00;;;32.00
7389;BMP180;3735;50.136;11.062;2023-05-21T12:54:48;97934.00;;;31.70
7389;BMP180;3735;50.136;11.062;2023-05-21T12:57:20;97925.00;;;31.20
7389;BMP180;3735;50.136;11.062;2023-05-21T12:59:58;97921.00;;;31.10
7389;BMP180;3735;50.136;11.062;2023-05-21T13:02:42;97927.00;;;30.90
7389;BMP180;3735;50.136;11.062;2023-05-21T13:05:15;97920.00;;;31.20
7389;BMP180;3735;50.136;11.062;2023-05-21T13:07:45;97924.00;;;31.20
7389;BMP180;3735;50.136;11.062;2023-05-21T13:10:12;97916.00;;;31.10
7389;BMP180;3735;50.136;11.062;2023-05-21T13:12:38;97921.00;;;31.90
7389;BMP180;3735;50.136;11.062;2023-05-21T13:15:05;97913.00;;;32.00
7389;BMP180;3735;50.136;11.062;2023-05-21T13:17:33;97919.00;;;31.90
7389;BMP180;3735;50.136;11.062;2023-05-21T13:20:17;97915.00;;;31.80
7389;BMP180;3735;50.136;11.062;2023-05-21T13:22:50;97918.00;;;31.20
7389;BMP180;3735;50.136;11.062;2023-05-21T13:25:21;97910.00;;;30.90
7389;BMP180;3735;50.136;11.062;2023-05-21T13:27:50;97913.00;;;31.00
7389;BMP180;3735;50.136;11.062;2023-05-21T13:30:17;97908.00;;;31.20
7389;BMP180;3735;50.136;11.062;2023-05-21T13:32:44;97912.00;;;31.10
7389;BMP180;3735;50.136;11.062;2023-05-21T13:35:10;97910.00;;;30.90
7389;BMP180;3735;50.136;11.062;2023-05-21T13:37:38;97911.00;;;30.70
7389;BMP180;3735;50.136;11.062;2023-05-21T13:40:07;97911.00;;;30.50
7389;BMP180;3735;50.136;11.062;2023-05-21T13:42:35;97914.00;;;30.60
7389;BMP180;3735;50.136;11.062;2023-05-21T13:45:08;97907.00;;;30.20
7389;BMP180;3735;50.136;11.062;2023-05-21T13:47:34;97916.00;;;29.80
7389;BMP180;3735;50.136;11.062;2023-05-21T13:50:00;97917.00;;;30.00
7389;BMP180;3735;50.136;11.062;2023-05-21T13:52:26;97912.00;;;30.10
7389;BMP180;3735;50.136;11.062;2023-05-21T13:54:52;97917.00;;;30.40
7389;BMP180;3735;50.136;11.062;2023-05-21T13:57:18;97912.00;;;30.50
7389;BMP180;3735;50.136;11.062;2023-05-21T13:59:43;97907.00;;;30.60
7389;BMP180;3735;50.136;11.062;2023-05-21T14:02:10;97910.00;;;30.40
7389;BMP180;3735;50.136;11.062;2023-05-21T14:04:36;97908.00;;;30.60
7389;BMP180;3735;50.136;11.062;2023-05-21T14:07:03;97901.00;;;30.90
7389;BMP180;3735;50.136;11.062;2023-05-21T14:09:29;97903.00;;;30.60
7389;BMP180;3735;50.136;11.062;2023-05-21T14:11:56;97908.00;;;30.50
7389;BMP180;3735;50.136;11.062;2023-05-21T14:14:22;97911.00;;;30.50
7389;BMP180;3735;50.136;11.062;2023-05-21T14:16:49;97908.00;;;30.30
7389;BMP180;3735;50.136;11.062;2023-05-21T14:19:15;97907.00;;;29.90
7389;BMP180;3735;50.136;11.062;2023-05-21T14:21:42;97906.00;;;29.80
7389;BMP180;3735;50.136;11.062;2023-05-21T14:24:08;97902.00;;;29.70
7389;BMP180;3735;50.136;11.062;2023-05-21T14:26:39;97896.00;;;29.50
7389;BMP180;3735;50.136;11.062;2023-05-21T14:29:05;97903.00;;;29.60
7389;BMP180;3735;50.136;11.062;2023-05-21T14:31:31;97895.00;;;29.50
7389;BMP180;3735;50.136;11.062;2023-05-21T14:33:57;97903.00;;;29.20
7389;BMP180;3735;50.136;11.062;2023-05-21T14:36:23;97901.00;;;29.10
7389;BMP180;3735;50.136;11.062;2023-05-21T14:38:48;97897.00;;;28.90
7389;BMP180;3735;50.136;11.062;2023-05-21T14:41:14;97896.00;;;28.80
7389;BMP180;3735;50.136;11.062;2023-05-21T14:43:40;97898.00;;;28.70
7389;BMP180;3735;50.136;11.062;2023-05-21T14:46:06;97896.00;;;28.40
7389;BMP180;3735;50.136;11.062;2023-05-21T14:48:31;97893.00;;;28.40
7389;BMP180;3735;50.136;11.062;2023-05-21T14:50:58;97902.00;;;28.20